Eagle, WI (53119)

1:37 PM CDT on September 29, 2016 (GMT -0500)
Eagle Springs Lake | | Change Station

Elev 847 ft 42.85 °N, 88.44 °W | Updated 1 minute ago

Overcast
Overcast
65.2 °F
Feels Like 65.2 °F
N
6.0
Wind Variable Wind from NE
Gusts 16.0 mph

Today
High -- | Low -- °F
--% Chance of Precip.
Yesterday
High -- | Low -- °F
Precip. -- in
Pressure 30.29 in
Visibility 10.0 miles
Clouds Overcast 2400 ft
Dew Point 56 °F
Humidity 71%
Rainfall 0.00 in
Snow Depth Not available.
6:49 AM 6:37 PM
Waning Crescent, 1% visible
METAR KUES 291745Z 04015G25KT 10SM OVC024 18/13 A3029
Pressure 30.29 in
Visibility 10.0 miles
Clouds Overcast 2400 ft
Dew Point 56 °F
Humidity 71%
Rainfall 0.00 in
Snow Depth Not available.
6:49 AM 6:37 PM
Waning Crescent, 1% visible
METAR KUES 291745Z 04015G25KT 10SM OVC024 18/13 A3029

10-Day Weather Forecast

Almanac

Astronomy

Sep. 29, 2016 Rise Set
Actual Time
Civil Twilight
Nautical Twilight
Astronomical Twilight
Moon
Length of Visible Light
Length of Day
Tomorrow will be .
, % of the Moon is Illuminated

Today's Extremes

State Highs State Lows

Community

WunderPhotos

Upload Photos

1,942,545 photos uploaded!

WunderBlog® & News

Nearby

Air Quality

  Air Quality AQ Index Pollutant
Not available.

Snow Depth

Station Depth Elevation

Earthquake Activity

City Distance Mag. Time & Date
Minimum magnitude displayed is 2.5.

Coastal Water Temperatures

Place Temperature

Stations

Nearby Weather Stations

Station Location Temp. Windchill Dew Point Humidity Wind Precip. Elev Updated Type
                   

Watches & Warnings

There are currently no watches in effect.